Nashville, Tennessee
Traffic Map
Current Weather Conditions
Nashville, Tennessee
Overcast
Overcast
37°
Feels Like: 33°
Wind Chill: 33° Ceiling: 9000
Heat Index: 37° Visibility: 10mi
Dew Point: 28° Wind: 5mph
Humidity: 70% Direction: 20° (NNE)
Pressure: 30.22in Gusts: 0mph
Raw Report DataKBNA 200553Z 02004KT 10SM FEW070 OVC090 03/M02 A3022 RMK AO2 SLP237 60000 T00281022 10033 20028 400500017 58007
Traffic Incident Summary
Active as of:
Severity:
Category:
InformationThere was an issue retrieving the traffic information for this location. Please try a different location or try again shortly.
Advertisements
Track Severe Weather on mobile